sensor_id;sensor_type;location;lat;lon;timestamp;pressure;altitude;pressure_sealevel;temperature;humidity
24558;BME280;12726;49.148;8.582;2023-05-29T00:02:08;100383.13;;;15.74;59.89
24558;BME280;12726;49.148;8.582;2023-05-29T00:04:54;100388.63;;;15.79;59.68
24558;BME280;12726;49.148;8.582;2023-05-29T00:07:40;100382.88;;;15.75;59.78
24558;BME280;12726;49.148;8.582;2023-05-29T00:10:25;100389.63;;;15.73;59.78
24558;BME280;12726;49.148;8.582;2023-05-29T00:13:10;100384.94;;;15.68;59.87
24558;BME280;12726;49.148;8.582;2023-05-29T00:15:57;100384.84;;;15.63;60.09
24558;BME280;12726;49.148;8.582;2023-05-29T00:18:44;100381.81;;;15.59;60.33
24558;BME280;12726;49.148;8.582;2023-05-29T00:21:30;100385.00;;;15.56;60.32
24558;BME280;12726;49.148;8.582;2023-05-29T00:24:16;100384.88;;;15.51;60.22
24558;BME280;12726;49.148;8.582;2023-05-29T00:27:01;100390.47;;;15.45;60.55
24558;BME280;12726;49.148;8.582;2023-05-29T00:29:46;100381.44;;;15.39;61.07
24558;BME280;12726;49.148;8.582;2023-05-29T00:32:33;100372.38;;;15.34;60.90
24558;BME280;12726;49.148;8.582;2023-05-29T00:35:19;100378.03;;;15.32;61.40
24558;BME280;12726;49.148;8.582;2023-05-29T00:38:04;100377.38;;;15.25;61.38
24558;BME280;12726;49.148;8.582;2023-05-29T00:40:49;100374.81;;;15.18;61.58
24558;BME280;12726;49.148;8.582;2023-05-29T00:43:35;100375.53;;;15.14;61.83
24558;BME280;12726;49.148;8.582;2023-05-29T00:46:20;100373.31;;;15.11;61.37
24558;BME280;12726;49.148;8.582;2023-05-29T00:49:07;100373.31;;;15.11;61.03
24558;BME280;12726;49.148;8.582;2023-05-29T00:51:54;100371.19;;;15.13;60.69
24558;BME280;12726;49.148;8.582;2023-05-29T00:54:43;100373.91;;;15.13;60.78
24558;BME280;12726;49.148;8.582;2023-05-29T00:57:29;100367.88;;;15.11;60.91
24558;BME280;12726;49.148;8.582;2023-05-29T01:00:16;100360.59;;;15.11;60.17
24558;BME280;12726;49.148;8.582;2023-05-29T01:03:03;100361.06;;;15.08;59.83
24558;BME280;12726;49.148;8.582;2023-05-29T01:05:51;100369.19;;;15.08;59.61
24558;BME280;12726;49.148;8.582;2023-05-29T01:08:36;100368.59;;;15.06;59.94
24558;BME280;12726;49.148;8.582;2023-05-29T01:11:27;100364.28;;;15.05;59.94
24558;BME280;12726;49.148;8.582;2023-05-29T01:14:23;100363.09;;;15.01;60.20
24558;BME280;12726;49.148;8.582;2023-05-29T01:17:16;100366.31;;;14.98;60.46
24558;BME280;12726;49.148;8.582;2023-05-29T01:20:13;100361.72;;;14.99;61.00
24558;BME280;12726;49.148;8.582;2023-05-29T01:23:21;100372.19;;;14.95;61.44
24558;BME280;12726;49.148;8.582;2023-05-29T01:26:42;100363.38;;;14.88;61.50
24558;BME280;12726;49.148;8.582;2023-05-29T01:29:34;100361.06;;;14.80;61.82
24558;BME280;12726;49.148;8.582;2023-05-29T01:32:20;100366.28;;;14.70;62.18
24558;BME280;12726;49.148;8.582;2023-05-29T01:35:06;100371.03;;;14.63;63.01
24558;BME280;12726;49.148;8.582;2023-05-29T01:37:52;100367.25;;;14.52;63.13
24558;BME280;12726;49.148;8.582;2023-05-29T01:40:37;100372.47;;;14.42;63.63
24558;BME280;12726;49.148;8.582;2023-05-29T01:43:25;100371.50;;;14.36;63.60
24558;BME280;12726;49.148;8.582;2023-05-29T01:46:11;100364.09;;;14.32;63.78
24558;BME280;12726;49.148;8.582;2023-05-29T01:48:57;100373.41;;;14.24;63.96
24558;BME280;12726;49.148;8.582;2023-05-29T01:51:42;100380.00;;;14.17;64.93
24558;BME280;12726;49.148;8.582;2023-05-29T01:54:28;100383.88;;;14.09;65.85
24558;BME280;12726;49.148;8.582;2023-05-29T01:57:14;100381.78;;;13.99;66.66
24558;BME280;12726;49.148;8.582;2023-05-29T02:00:01;100375.41;;;13.94;67.07
24558;BME280;12726;49.148;8.582;2023-05-29T02:02:52;100387.53;;;13.91;67.42
24558;BME280;12726;49.148;8.582;2023-05-29T02:05:38;100376.84;;;13.85;67.56
24558;BME280;12726;49.148;8.582;2023-05-29T02:08:23;100381.28;;;13.79;67.63
24558;BME280;12726;49.148;8.582;2023-05-29T02:11:09;100380.13;;;13.75;68.23
24558;BME280;12726;49.148;8.582;2023-05-29T02:13:54;100386.69;;;13.67;68.77
24558;BME280;12726;49.148;8.582;2023-05-29T02:16:41;100383.25;;;13.60;69.23
24558;BME280;12726;49.148;8.582;2023-05-29T02:19:28;100378.56;;;13.56;69.32
24558;BME280;12726;49.148;8.582;2023-05-29T02:22:13;100387.63;;;13.50;70.41
24558;BME280;12726;49.148;8.582;2023-05-29T02:24:59;100380.75;;;13.36;71.24
24558;BME280;12726;49.148;8.582;2023-05-29T02:27:44;100384.75;;;13.33;71.57
24558;BME280;12726;49.148;8.582;2023-05-29T02:30:29;100385.66;;;13.27;72.10
24558;BME280;12726;49.148;8.582;2023-05-29T02:33:16;100390.34;;;13.20;72.71
24558;BME280;12726;49.148;8.582;2023-05-29T02:36:02;100392.31;;;13.13;73.39
24558;BME280;12726;49.148;8.582;2023-05-29T02:38:47;100399.06;;;13.04;73.71
24558;BME280;12726;49.148;8.582;2023-05-29T02:41:33;100389.38;;;12.96;73.71
24558;BME280;12726;49.148;8.582;2023-05-29T02:44:18;100394.66;;;12.91;74.53
24558;BME280;12726;49.148;8.582;2023-05-29T02:47:04;100394.75;;;12.84;75.22
24558;BME280;12726;49.148;8.582;2023-05-29T02:49:51;100385.91;;;12.77;75.66
24558;BME280;12726;49.148;8.582;2023-05-29T02:52:36;100394.00;;;12.77;75.34
24558;BME280;12726;49.148;8.582;2023-05-29T02:55:21;100398.88;;;12.69;75.59
24558;BME280;12726;49.148;8.582;2023-05-29T02:58:07;100401.44;;;12.64;75.84
24558;BME280;12726;49.148;8.582;2023-05-29T03:00:52;100395.28;;;12.57;76.50
24558;BME280;12726;49.148;8.582;2023-05-29T03:03:37;100393.13;;;12.47;76.71
24558;BME280;12726;49.148;8.582;2023-05-29T03:06:24;100395.66;;;12.42;77.26
24558;BME280;12726;49.148;8.582;2023-05-29T03:09:09;100392.03;;;12.30;77.60
24558;BME280;12726;49.148;8.582;2023-05-29T03:11:56;100381.84;;;12.13;78.21
24558;BME280;12726;49.148;8.582;2023-05-29T03:14:41;100394.81;;;12.05;78.67
24558;BME280;12726;49.148;8.582;2023-05-29T03:17:26;100390.88;;;12.01;79.11
24558;BME280;12726;49.148;8.582;2023-05-29T03:20:12;100388.44;;;11.99;80.01
24558;BME280;12726;49.148;8.582;2023-05-29T03:23:01;100389.25;;;12.00;79.67
24558;BME280;12726;49.148;8.582;2023-05-29T03:25:46;100387.81;;;11.97;80.12
24558;BME280;12726;49.148;8.582;2023-05-29T03:28:31;100385.53;;;11.94;80.62
24558;BME280;12726;49.148;8.582;2023-05-29T03:31:16;100386.44;;;11.88;80.70
24558;BME280;12726;49.148;8.582;2023-05-29T03:34:02;100392.22;;;11.92;80.74
24558;BME280;12726;49.148;8.582;2023-05-29T03:36:47;100392.66;;;11.89;80.92
24558;BME280;12726;49.148;8.582;2023-05-29T03:39:34;100382.09;;;11.87;80.42
24558;BME280;12726;49.148;8.582;2023-05-29T03:42:20;100388.31;;;11.88;80.58
24558;BME280;12726;49.148;8.582;2023-05-29T03:45:06;100399.50;;;11.91;81.41
24558;BME280;12726;49.148;8.582;2023-05-29T03:47:51;100399.50;;;11.91;81.41
24558;BME280;12726;49.148;8.582;2023-05-29T03:50:37;100400.75;;;11.89;81.49
24558;BME280;12726;49.148;8.582;2023-05-29T03:53:22;100396.81;;;11.91;81.79
24558;BME280;12726;49.148;8.582;2023-05-29T03:56:09;100407.81;;;11.90;81.73
24558;BME280;12726;49.148;8.582;2023-05-29T03:58:54;100404.75;;;11.86;81.96
24558;BME280;12726;49.148;8.582;2023-05-29T04:01:40;100415.19;;;11.76;82.49
24558;BME280;12726;49.148;8.582;2023-05-29T04:04:25;100408.97;;;11.69;83.00
24558;BME280;12726;49.148;8.582;2023-05-29T04:07:10;100419.97;;;11.74;82.60
24558;BME280;12726;49.148;8.582;2023-05-29T04:09:55;100422.84;;;11.79;82.54
24558;BME280;12726;49.148;8.582;2023-05-29T04:12:42;100425.09;;;11.82;82.79
24558;BME280;12726;49.148;8.582;2023-05-29T04:15:27;100428.56;;;11.89;83.11
24558;BME280;12726;49.148;8.582;2023-05-29T04:18:14;100431.41;;;11.94;82.89
24558;BME280;12726;49.148;8.582;2023-05-29T04:20:59;100436.38;;;11.97;82.36
24558;BME280;12726;49.148;8.582;2023-05-29T04:23:45;100439.63;;;12.06;82.15
24558;BME280;12726;49.148;8.582;2023-05-29T04:26:30;100441.88;;;12.09;81.59
24558;BME280;12726;49.148;8.582;2023-05-29T04:29:17;100449.59;;;12.05;81.25
24558;BME280;12726;49.148;8.582;2023-05-29T04:32:03;100452.72;;;12.02;81.51
24558;BME280;12726;49.148;8.582;2023-05-29T04:34:48;100457.69;;;12.05;81.42
24558;BME280;12726;49.148;8.582;2023-05-29T04:37:35;100455.81;;;12.06;81.89
24558;BME280;12726;49.148;8.582;2023-05-29T04:40:22;100457.84;;;12.10;82.42
24558;BME280;12726;49.148;8.582;2023-05-29T04:43:07;100457.34;;;12.20;82.00
24558;BME280;12726;49.148;8.582;2023-05-29T04:45:54;100469.91;;;12.33;82.37
24558;BME280;12726;49.148;8.582;2023-05-29T04:48:39;100472.69;;;12.44;81.73
24558;BME280;12726;49.148;8.582;2023-05-29T04:51:24;100466.78;;;12.54;81.80
24558;BME280;12726;49.148;8.582;2023-05-29T04:54:12;100475.19;;;12.64;81.49
24558;BME280;12726;49.148;8.582;2023-05-29T04:56:57;100476.72;;;12.78;80.28
24558;BME280;12726;49.148;8.582;2023-05-29T04:59:42;100474.41;;;12.93;78.65
24558;BME280;12726;49.148;8.582;2023-05-29T05:02:29;100478.88;;;13.06;78.47
24558;BME280;12726;49.148;8.582;2023-05-29T05:05:14;100475.06;;;13.14;77.96
24558;BME280;12726;49.148;8.582;2023-05-29T05:08:00;100483.00;;;13.27;78.10
24558;BME280;12726;49.148;8.582;2023-05-29T05:10:45;100488.09;;;13.35;77.54
24558;BME280;12726;49.148;8.582;2023-05-29T05:13:30;100492.34;;;13.43;77.06
24558;BME280;12726;49.148;8.582;2023-05-29T05:16:15;100493.09;;;13.50;76.76
24558;BME280;12726;49.148;8.582;2023-05-29T05:19:03;100490.66;;;13.60;76.37
24558;BME280;12726;49.148;8.582;2023-05-29T05:21:49;100494.19;;;13.72;76.04
24558;BME280;12726;49.148;8.582;2023-05-29T05:24:34;100501.06;;;13.86;75.25
24558;BME280;12726;49.148;8.582;2023-05-29T05:27:19;100500.50;;;13.96;74.53
24558;BME280;12726;49.148;8.582;2023-05-29T05:30:06;100498.75;;;14.01;74.85
24558;BME280;12726;49.148;8.582;2023-05-29T05:32:51;100502.78;;;14.10;74.37
24558;BME280;12726;49.148;8.582;2023-05-29T05:35:38;100510.44;;;14.25;74.05
24558;BME280;12726;49.148;8.582;2023-05-29T05:38:24;100504.59;;;14.40;73.26
24558;BME280;12726;49.148;8.582;2023-05-29T05:41:09;100516.13;;;14.59;73.40
24558;BME280;12726;49.148;8.582;2023-05-29T05:43:55;100517.44;;;14.79;72.11
24558;BME280;12726;49.148;8.582;2023-05-29T05:46:41;100513.41;;;14.94;71.43
24558;BME280;12726;49.148;8.582;2023-05-29T05:49:26;100508.06;;;15.10;70.60
24558;BME280;12726;49.148;8.582;2023-05-29T05:52:13;100514.50;;;15.21;69.92
24558;BME280;12726;49.148;8.582;2023-05-29T05:54:58;100516.72;;;15.36;68.84
24558;BME280;12726;49.148;8.582;2023-05-29T05:57:43;100524.22;;;15.57;68.24
24558;BME280;12726;49.148;8.582;2023-05-29T06:00:29;100524.69;;;15.82;67.85
24558;BME280;12726;49.148;8.582;2023-05-29T06:03:14;100530.56;;;16.08;67.08
24558;BME280;12726;49.148;8.582;2023-05-29T06:06:00;100535.38;;;16.34;65.72
24558;BME280;12726;49.148;8.582;2023-05-29T06:08:47;100538.28;;;16.61;64.38
24558;BME280;12726;49.148;8.582;2023-05-29T06:11:33;100543.25;;;16.86;64.02
24558;BME280;12726;49.148;8.582;2023-05-29T06:14:18;100548.41;;;17.04;62.67
24558;BME280;12726;49.148;8.582;2023-05-29T06:17:04;100544.44;;;17.33;62.09
24558;BME280;12726;49.148;8.582;2023-05-29T06:19:49;100550.88;;;17.71;60.34
24558;BME280;12726;49.148;8.582;2023-05-29T06:22:35;100541.75;;;18.09;59.79
24558;BME280;12726;49.148;8.582;2023-05-29T06:25:21;100550.56;;;18.53;58.11
24558;BME280;12726;49.148;8.582;2023-05-29T06:28:14;100546.94;;;18.79;56.95
24558;BME280;12726;49.148;8.582;2023-05-29T06:30:59;100548.06;;;19.40;55.79
24558;BME280;12726;49.148;8.582;2023-05-29T06:33:45;100541.44;;;19.93;53.43
24558;BME280;12726;49.148;8.582;2023-05-29T06:36:30;100545.34;;;20.43;50.48
24558;BME280;12726;49.148;8.582;2023-05-29T06:39:16;100543.34;;;20.94;48.33
24558;BME280;12726;49.148;8.582;2023-05-29T06:42:03;100542.09;;;21.41;47.17
24558;BME280;12726;49.148;8.582;2023-05-29T06:44:49;100541.09;;;21.81;44.89
24558;BME280;12726;49.148;8.582;2023-05-29T06:47:34;100538.84;;;21.88;44.69
24558;BME280;12726;49.148;8.582;2023-05-29T06:50:20;100535.19;;;22.03;44.30
24558;BME280;12726;49.148;8.582;2023-05-29T06:53:05;100548.88;;;22.42;42.66
24558;BME280;12726;49.148;8.582;2023-05-29T06:55:50;100548.38;;;22.69;42.04
24558;BME280;12726;49.148;8.582;2023-05-29T06:58:37;100551.41;;;22.96;40.63
24558;BME280;12726;49.148;8.582;2023-05-29T07:01:23;100551.31;;;23.30;40.44
24558;BME280;12726;49.148;8.582;2023-05-29T07:04:11;100552.31;;;23.15;40.32
24558;BME280;12726;49.148;8.582;2023-05-29T07:06:56;100543.53;;;23.37;40.29
24558;BME280;12726;49.148;8.582;2023-05-29T07:09:42;100552.41;;;23.53;39.80
24558;BME280;12726;49.148;8.582;2023-05-29T07:12:27;100551.78;;;23.79;38.41
24558;BME280;12726;49.148;8.582;2023-05-29T07:15:13;100554.53;;;23.98;37.83
24558;BME280;12726;49.148;8.582;2023-05-29T07:17:59;100550.28;;;24.25;37.47
24558;BME280;12726;49.148;8.582;2023-05-29T07:20:44;100553.09;;;24.38;37.74
24558;BME280;12726;49.148;8.582;2023-05-29T07:23:29;100552.88;;;24.67;36.85
24558;BME280;12726;49.148;8.582;2023-05-29T07:26:15;100544.22;;;24.74;36.33
24558;BME280;12726;49.148;8.582;2023-05-29T07:29:00;100549.09;;;25.09;36.14
24558;BME280;12726;49.148;8.582;2023-05-29T07:31:47;100560.31;;;25.26;34.93
24558;BME280;12726;49.148;8.582;2023-05-29T07:34:32;100556.75;;;25.12;35.45
24558;BME280;12726;49.148;8.582;2023-05-29T07:37:18;100559.31;;;25.36;35.27
24558;BME280;12726;49.148;8.582;2023-05-29T07:40:04;100556.34;;;25.96;34.54
24558;BME280;12726;49.148;8.582;2023-05-29T07:42:50;100556.06;;;26.33;33.71
24558;BME280;12726;49.148;8.582;2023-05-29T07:45:35;100561.25;;;26.57;33.59
24558;BME280;12726;49.148;8.582;2023-05-29T07:48:22;100558.31;;;27.07;32.42
24558;BME280;12726;49.148;8.582;2023-05-29T07:51:07;100567.66;;;27.28;32.29
24558;BME280;12726;49.148;8.582;2023-05-29T07:53:53;100574.75;;;27.60;31.69
24558;BME280;12726;49.148;8.582;2023-05-29T07:56:38;100571.84;;;27.56;31.22
24558;BME280;12726;49.148;8.582;2023-05-29T07:59:24;100571.88;;;27.82;31.62
24558;BME280;12726;49.148;8.582;2023-05-29T08:02:16;100566.03;;;28.10;30.44
24558;BME280;12726;49.148;8.582;2023-05-29T08:05:04;100570.63;;;28.40;30.22
24558;BME280;12726;49.148;8.582;2023-05-29T08:07:49;100578.53;;;28.67;29.98
24558;BME280;12726;49.148;8.582;2023-05-29T08:10:35;100566.84;;;28.44;29.90
24558;BME280;12726;49.148;8.582;2023-05-29T08:13:20;100570.59;;;28.49;29.13
24558;BME280;12726;49.148;8.582;2023-05-29T08:16:06;100570.59;;;28.49;29.00
24558;BME280;12726;49.148;8.582;2023-05-29T08:18:51;100564.88;;;28.62;28.76
24558;BME280;12726;49.148;8.582;2023-05-29T08:21:38;100560.63;;;28.65;29.37
24558;BME280;12726;49.148;8.582;2023-05-29T08:24:24;100561.81;;;28.47;29.50
24558;BME280;12726;49.148;8.582;2023-05-29T08:27:10;100558.34;;;28.58;29.42
24558;BME280;12726;49.148;8.582;2023-05-29T08:29:55;100553.94;;;28.66;29.15
24558;BME280;12726;49.148;8.582;2023-05-29T08:32:40;100561.94;;;28.76;29.27
24558;BME280;12726;49.148;8.582;2023-05-29T08:35:26;100565.78;;;28.92;29.35
24558;BME280;12726;49.148;8.582;2023-05-29T08:38:13;100556.53;;;29.26;28.59
24558;BME280;12726;49.148;8.582;2023-05-29T08:40:59;100559.19;;;29.52;27.88
24558;BME280;12726;49.148;8.582;2023-05-29T08:43:44;100560.19;;;29.09;28.39
24558;BME280;12726;49.148;8.582;2023-05-29T08:46:32;100553.78;;;29.17;28.68
24558;BME280;12726;49.148;8.582;2023-05-29T08:49:19;100562.59;;;29.19;28.74
24558;BME280;12726;49.148;8.582;2023-05-29T08:52:12;100557.97;;;29.32;27.53
24558;BME280;12726;49.148;8.582;2023-05-29T08:55:00;100561.19;;;29.43;27.75
24558;BME280;12726;49.148;8.582;2023-05-29T08:57:48;100557.28;;;29.44;27.80
24558;BME280;12726;49.148;8.582;2023-05-29T09:00:33;100552.78;;;29.22;28.29
24558;BME280;12726;49.148;8.582;2023-05-29T09:03:19;100555.22;;;29.24;28.40
24558;BME280;12726;49.148;8.582;2023-05-29T09:06:06;100558.16;;;29.27;28.92
24558;BME280;12726;49.148;8.582;2023-05-29T09:08:52;100552.41;;;29.32;28.12
24558;BME280;12726;49.148;8.582;2023-05-29T09:11:39;100562.91;;;29.56;28.18
24558;BME280;12726;49.148;8.582;2023-05-29T09:14:35;100563.91;;;29.51;27.29
24558;BME280;12726;49.148;8.582;2023-05-29T09:17:21;100544.03;;;29.11;27.44
24558;BME280;12726;49.148;8.582;2023-05-29T09:20:14;100550.53;;;29.15;27.63
24558;BME280;12726;49.148;8.582;2023-05-29T09:23:01;100557.16;;;28.85;28.42
24558;BME280;12726;49.148;8.582;2023-05-29T09:25:52;100553.06;;;29.38;28.83
24558;BME280;12726;49.148;8.582;2023-05-29T09:28:39;100548.41;;;30.01;27.81
24558;BME280;12726;49.148;8.582;2023-05-29T09:31:25;100554.81;;;29.72;27.49
24558;BME280;12726;49.148;8.582;2023-05-29T09:34:10;100542.91;;;29.92;27.27
24558;BME280;12726;49.148;8.582;2023-05-29T09:37:00;100548.97;;;29.65;27.37
24558;BME280;12726;49.148;8.582;2023-05-29T09:39:51;100548.91;;;29.52;27.65
24558;BME280;12726;49.148;8.582;2023-05-29T09:42:37;100555.31;;;29.44;28.01
24558;BME280;12726;49.148;8.582;2023-05-29T09:45:25;100557.41;;;29.77;26.76
24558;BME280;12726;49.148;8.582;2023-05-29T09:48:13;100551.06;;;30.18;26.79
24558;BME280;12726;49.148;8.582;2023-05-29T09:51:02;100541.13;;;30.50;26.77
24558;BME280;12726;49.148;8.582;2023-05-29T09:53:47;100550.81;;;30.44;26.13
24558;BME280;12726;49.148;8.582;2023-05-29T09:56:34;100541.72;;;30.55;25.47
24558;BME280;12726;49.148;8.582;2023-05-29T09:59:23;100538.00;;;30.51;25.90
24558;BME280;12726;49.148;8.582;2023-05-29T10:02:11;100544.53;;;30.14;26.23
24558;BME280;12726;49.148;8.582;2023-05-29T10:04:58;100538.94;;;30.02;27.67
24558;BME280;12726;49.148;8.582;2023-05-29T10:07:46;100540.09;;;30.01;26.51
24558;BME280;12726;49.148;8.582;2023-05-29T10:10:32;100541.19;;;30.41;25.50
24558;BME280;12726;49.148;8.582;2023-05-29T10:13:20;100528.81;;;30.84;25.52
24558;BME280;12726;49.148;8.582;2023-05-29T10:16:11;100528.94;;;30.87;25.18
24558;BME280;12726;49.148;8.582;2023-05-29T10:18:59;100523.56;;;30.58;25.53
24558;BME280;12726;49.148;8.582;2023-05-29T10:21:46;100521.81;;;31.10;24.59
24558;BME280;12726;49.148;8.582;2023-05-29T10:24:32;100530.25;;;31.63;24.79
24558;BME280;12726;49.148;8.582;2023-05-29T10:27:18;100524.81;;;31.18;25.32
24558;BME280;12726;49.148;8.582;2023-05-29T10:30:08;100514.88;;;31.93;23.64
24558;BME280;12726;49.148;8.582;2023-05-29T10:33:20;100522.25;;;32.01;23.62
24558;BME280;12726;49.148;8.582;2023-05-29T10:36:13;100524.00;;;32.77;22.49
24558;BME280;12726;49.148;8.582;2023-05-29T10:39:00;100521.78;;;32.39;22.85
24558;BME280;12726;49.148;8.582;2023-05-29T10:41:45;100523.75;;;32.39;22.79
24558;BME280;12726;49.148;8.582;2023-05-29T10:44:38;100529.19;;;32.19;22.61
24558;BME280;12726;49.148;8.582;2023-05-29T10:47:26;100514.81;;;31.65;23.24
24558;BME280;12726;49.148;8.582;2023-05-29T10:50:12;100520.84;;;31.43;23.42
24558;BME280;12726;49.148;8.582;2023-05-29T10:52:59;100515.66;;;31.29;24.34
24558;BME280;12726;49.148;8.582;2023-05-29T10:55:45;100513.66;;;32.06;23.45
24558;BME280;12726;49.148;8.582;2023-05-29T10:58:30;100516.88;;;32.64;23.53
24558;BME280;12726;49.148;8.582;2023-05-29T11:01:16;100516.13;;;32.95;22.42
24558;BME280;12726;49.148;8.582;2023-05-29T11:04:25;100511.34;;;32.95;21.59
24558;BME280;12726;49.148;8.582;2023-05-29T11:07:33;100515.13;;;32.44;22.58
24558;BME280;12726;49.148;8.582;2023-05-29T11:10:43;100512.50;;;31.43;22.51
24558;BME280;12726;49.148;8.582;2023-05-29T11:13:33;100511.59;;;31.39;23.12
24558;BME280;12726;49.148;8.582;2023-05-29T11:16:35;100514.84;;;31.29;22.89
24558;BME280;12726;49.148;8.582;2023-05-29T11:19:21;100512.31;;;31.11;22.63
24558;BME280;12726;49.148;8.582;2023-05-29T11:22:09;100515.81;;;30.63;23.26
24558;BME280;12726;49.148;8.582;2023-05-29T11:24:59;100507.84;;;30.08;24.12
24558;BME280;12726;49.148;8.582;2023-05-29T11:27:47;100506.16;;;29.95;24.36
24558;BME280;12726;49.148;8.582;2023-05-29T11:30:40;100504.25;;;29.87;24.80
24558;BME280;12726;49.148;8.582;2023-05-29T11:33:27;100512.19;;;29.76;24.22
24558;BME280;12726;49.148;8.582;2023-05-29T11:36:14;100496.25;;;29.85;25.57
24558;BME280;12726;49.148;8.582;2023-05-29T11:39:00;100508.22;;;29.77;25.07
24558;BME280;12726;49.148;8.582;2023-05-29T11:41:50;100499.31;;;29.72;24.98
24558;BME280;12726;49.148;8.582;2023-05-29T11:44:37;100504.91;;;29.63;23.91
24558;BME280;12726;49.148;8.582;2023-05-29T11:47:22;100516.00;;;29.63;24.95
24558;BME280;12726;49.148;8.582;2023-05-29T11:50:18;100519.13;;;29.41;25.24
24558;BME280;12726;49.148;8.582;2023-05-29T11:53:06;100507.41;;;29.56;24.53
24558;BME280;12726;49.148;8.582;2023-05-29T11:55:51;100508.47;;;29.43;25.08
24558;BME280;12726;49.148;8.582;2023-05-29T11:58:37;100497.06;;;29.44;25.37
24558;BME280;12726;49.148;8.582;2023-05-29T12:01:24;100507.75;;;29.25;24.51
24558;BME280;12726;49.148;8.582;2023-05-29T12:04:16;100512.03;;;29.14;25.01
24558;BME280;12726;49.148;8.582;2023-05-29T12:07:01;100506.50;;;29.14;25.10
24558;BME280;12726;49.148;8.582;2023-05-29T12:09:46;100498.91;;;29.32;24.55
24558;BME280;12726;49.148;8.582;2023-05-29T12:12:36;100506.38;;;29.10;23.15
24558;BME280;12726;49.148;8.582;2023-05-29T12:15:23;100497.16;;;28.89;24.28
24558;BME280;12726;49.148;8.582;2023-05-29T12:18:10;100493.56;;;28.97;25.36
24558;BME280;12726;49.148;8.582;2023-05-29T12:20:58;100501.72;;;28.94;23.98
24558;BME280;12726;49.148;8.582;2023-05-29T12:23:44;100493.88;;;28.40;23.81
24558;BME280;12726;49.148;8.582;2023-05-29T12:26:30;100504.59;;;28.51;24.57
24558;BME280;12726;49.148;8.582;2023-05-29T12:29:16;100482.91;;;28.61;23.54
24558;BME280;12726;49.148;8.582;2023-05-29T12:32:02;100490.84;;;28.80;24.06
24558;BME280;12726;49.148;8.582;2023-05-29T12:34:50;100494.25;;;28.86;25.17
24558;BME280;12726;49.148;8.582;2023-05-29T12:37:36;100490.16;;;28.92;25.22
24558;BME280;12726;49.148;8.582;2023-05-29T12:40:22;100491.75;;;28.93;24.35
24558;BME280;12726;49.148;8.582;2023-05-29T12:43:08;100492.16;;;28.83;24.46
24558;BME280;12726;49.148;8.582;2023-05-29T12:45:54;100488.56;;;28.82;23.68
24558;BME280;12726;49.148;8.582;2023-05-29T12:48:40;100485.31;;;28.80;24.45
24558;BME280;12726;49.148;8.582;2023-05-29T12:51:28;100487.50;;;28.49;24.21
24558;BME280;12726;49.148;8.582;2023-05-29T12:54:14;100474.44;;;28.58;24.48
24558;BME280;12726;49.148;8.582;2023-05-29T12:57:00;100487.78;;;28.64;24.16
24558;BME280;12726;49.148;8.582;2023-05-29T12:59:45;100482.59;;;28.54;23.54
24558;BME280;12726;49.148;8.582;2023-05-29T13:02:31;100491.56;;;28.51;24.06
24558;BME280;12726;49.148;8.582;2023-05-29T13:05:16;100485.06;;;28.56;24.54
24558;BME280;12726;49.148;8.582;2023-05-29T13:08:04;100482.72;;;28.66;24.10
24558;BME280;12726;49.148;8.582;2023-05-29T13:10:51;100458.94;;;28.57;24.18
24558;BME280;12726;49.148;8.582;2023-05-29T13:13:37;100481.69;;;28.33;24.42
24558;BME280;12726;49.148;8.582;2023-05-29T13:16:22;100485.09;;;28.30;24.47
24558;BME280;12726;49.148;8.582;2023-05-29T13:19:07;100483.63;;;28.32;24.14
24558;BME280;12726;49.148;8.582;2023-05-29T13:21:52;100468.31;;;28.35;24.12
24558;BME280;12726;49.148;8.582;2023-05-29T13:24:41;100470.59;;;28.33;24.05
24558;BME280;12726;49.148;8.582;2023-05-29T13:27:26;100453.81;;;28.29;24.26
24558;BME280;12726;49.148;8.582;2023-05-29T13:30:13;100468.03;;;27.85;24.70
24558;BME280;12726;49.148;8.582;2023-05-29T13:32:58;100459.88;;;27.71;24.67
24558;BME280;12726;49.148;8.582;2023-05-29T13:35:44;100463.00;;;27.70;24.98
24558;BME280;12726;49.148;8.582;2023-05-29T13:38:29;100463.47;;;27.72;26.25
24558;BME280;12726;49.148;8.582;2023-05-29T13:41:16;100453.72;;;27.74;25.87
24558;BME280;12726;49.148;8.582;2023-05-29T13:44:01;100452.09;;;27.82;25.49
24558;BME280;12726;49.148;8.582;2023-05-29T13:46:47;100466.41;;;27.84;25.54
24558;BME280;12726;49.148;8.582;2023-05-29T13:49:32;100454.69;;;27.70;25.54
24558;BME280;12726;49.148;8.582;2023-05-29T13:52:18;100447.50;;;27.51;26.08
24558;BME280;12726;49.148;8.582;2023-05-29T13:55:04;100444.13;;;27.63;25.98
24558;BME280;12726;49.148;8.582;2023-05-29T13:57:53;100450.38;;;27.29;26.67
24558;BME280;12726;49.148;8.582;2023-05-29T14:00:39;100449.78;;;27.41;26.06
24558;BME280;12726;49.148;8.582;2023-05-29T14:03:24;100435.63;;;27.42;25.46
24558;BME280;12726;49.148;8.582;2023-05-29T14:06:12;100448.16;;;27.48;26.47
24558;BME280;12726;49.148;8.582;2023-05-29T14:08:58;100440.00;;;27.52;26.06
24558;BME280;12726;49.148;8.582;2023-05-29T14:11:43;100440.50;;;27.45;25.76
24558;BME280;12726;49.148;8.582;2023-05-29T14:14:30;100446.84;;;27.46;26.00
24558;BME280;12726;49.148;8.582;2023-05-29T14:17:15;100447.97;;;27.45;25.86
24558;BME280;12726;49.148;8.582;2023-05-29T14:20:00;100441.94;;;27.43;25.55
24558;BME280;12726;49.148;8.582;2023-05-29T14:22:48;100440.66;;;27.32;25.38
24558;BME280;12726;49.148;8.582;2023-05-29T14:25:34;100440.94;;;27.21;25.67
24558;BME280;12726;49.148;8.582;2023-05-29T14:28:19;100441.75;;;27.22;25.64
24558;BME280;12726;49.148;8.582;2023-05-29T14:31:06;100437.72;;;27.28;26.15
24558;BME280;12726;49.148;8.582;2023-05-29T14:33:51;100438.66;;;27.15;25.97